sensor_id;sensor_type;location;lat;lon;timestamp;temperature;humidity
5248;DHT22;2644;52.420;13.580;2022-09-14T00:00:28;13.40;99.90
5248;DHT22;2644;52.420;13.580;2022-09-14T00:01:33;13.40;99.90
5248;DHT22;2644;52.420;13.580;2022-09-14T00:02:38;13.40;99.90
5248;DHT22;2644;52.420;13.580;2022-09-14T00:03:42;13.40;99.90
5248;DHT22;2644;52.420;13.580;2022-09-14T00:04:44;13.40;99.90
5248;DHT22;2644;52.420;13.580;2022-09-14T00:05:47;13.40;99.90
5248;DHT22;2644;52.420;13.580;2022-09-14T00:06:50;13.40;99.90
5248;DHT22;2644;52.420;13.580;2022-09-14T00:07:53;13.40;99.90
5248;DHT22;2644;52.420;13.580;2022-09-14T00:08:56;13.50;99.90
5248;DHT22;2644;52.420;13.580;2022-09-14T00:09:59;13.50;99.90
5248;DHT22;2644;52.420;13.580;2022-09-14T00:11:04;13.40;99.90
5248;DHT22;2644;52.420;13.580;2022-09-14T00:12:07;13.50;99.90
5248;DHT22;2644;52.420;13.580;2022-09-14T00:13:10;13.50;99.90
5248;DHT22;2644;52.420;13.580;2022-09-14T00:14:14;13.50;99.90
5248;DHT22;2644;52.420;13.580;2022-09-14T00:15:17;13.50;99.90
5248;DHT22;2644;52.420;13.580;2022-09-14T00:16:22;13.50;99.90
5248;DHT22;2644;52.420;13.580;2022-09-14T00:17:24;13.50;99.90
5248;DHT22;2644;52.420;13.580;2022-09-14T00:18:27;13.50;99.90
5248;DHT22;2644;52.420;13.580;2022-09-14T00:19:29;13.50;99.90
5248;DHT22;2644;52.420;13.580;2022-09-14T00:20:33;13.50;99.90
5248;DHT22;2644;52.420;13.580;2022-09-14T00:21:37;13.60;99.90
5248;DHT22;2644;52.420;13.580;2022-09-14T00:22:43;13.60;99.90
5248;DHT22;2644;52.420;13.580;2022-09-14T00:23:45;13.60;99.90
5248;DHT22;2644;52.420;13.580;2022-09-14T00:24:48;13.60;99.90
5248;DHT22;2644;52.420;13.580;2022-09-14T00:25:51;13.60;99.90
5248;DHT22;2644;52.420;13.580;2022-09-14T00:26:54;13.60;99.90
5248;DHT22;2644;52.420;13.580;2022-09-14T00:27:56;13.60;99.90
5248;DHT22;2644;52.420;13.580;2022-09-14T00:29:00;13.60;99.90
5248;DHT22;2644;52.420;13.580;2022-09-14T00:30:06;13.50;99.90
5248;DHT22;2644;52.420;13.580;2022-09-14T00:31:11;13.50;99.90
5248;DHT22;2644;52.420;13.580;2022-09-14T00:32:13;13.50;99.90
5248;DHT22;2644;52.420;13.580;2022-09-14T00:33:16;13.50;99.90
5248;DHT22;2644;52.420;13.580;2022-09-14T00:34:19;13.50;99.90
5248;DHT22;2644;52.420;13.580;2022-09-14T00:35:22;13.40;99.90
5248;DHT22;2644;52.420;13.580;2022-09-14T00:36:26;13.40;99.90
5248;DHT22;2644;52.420;13.580;2022-09-14T00:37:29;13.40;99.90
5248;DHT22;2644;52.420;13.580;2022-09-14T00:38:32;13.40;99.90
5248;DHT22;2644;52.420;13.580;2022-09-14T00:39:35;13.40;99.90
5248;DHT22;2644;52.420;13.580;2022-09-14T00:40:37;13.40;99.90
5248;DHT22;2644;52.420;13.580;2022-09-14T00:41:42;13.30;99.90
5248;DHT22;2644;52.420;13.580;2022-09-14T00:42:45;13.30;99.90
5248;DHT22;2644;52.420;13.580;2022-09-14T00:43:53;13.30;99.90
5248;DHT22;2644;52.420;13.580;2022-09-14T00:45:01;13.30;99.90
5248;DHT22;2644;52.420;13.580;2022-09-14T00:46:05;13.20;99.90
5248;DHT22;2644;52.420;13.580;2022-09-14T00:47:11;13.20;99.90
5248;DHT22;2644;52.420;13.580;2022-09-14T00:48:16;13.20;99.90
5248;DHT22;2644;52.420;13.580;2022-09-14T00:49:20;13.20;99.90
5248;DHT22;2644;52.420;13.580;2022-09-14T00:50:24;13.20;99.90
5248;DHT22;2644;52.420;13.580;2022-09-14T00:51:28;13.10;99.90
5248;DHT22;2644;52.420;13.580;2022-09-14T00:52:36;13.20;99.90
5248;DHT22;2644;52.420;13.580;2022-09-14T00:53:38;13.10;99.90
5248;DHT22;2644;52.420;13.580;2022-09-14T00:54:45;13.10;99.90
5248;DHT22;2644;52.420;13.580;2022-09-14T00:55:48;13.10;99.90
5248;DHT22;2644;52.420;13.580;2022-09-14T00:56:56;13.10;99.90
5248;DHT22;2644;52.420;13.580;2022-09-14T00:58:00;13.10;99.90
5248;DHT22;2644;52.420;13.580;2022-09-14T00:59:08;13.10;99.90
5248;DHT22;2644;52.420;13.580;2022-09-14T01:00:13;13.10;99.90
5248;DHT22;2644;52.420;13.580;2022-09-14T01:01:17;13.10;99.90
5248;DHT22;2644;52.420;13.580;2022-09-14T01:02:22;13.00;99.90
5248;DHT22;2644;52.420;13.580;2022-09-14T01:03:25;13.00;99.90
5248;DHT22;2644;52.420;13.580;2022-09-14T01:04:28;13.00;99.90
5248;DHT22;2644;52.420;13.580;2022-09-14T01:05:51;13.00;99.90
5248;DHT22;2644;52.420;13.580;2022-09-14T01:07:02;13.00;99.90
5248;DHT22;2644;52.420;13.580;2022-09-14T01:08:16;13.00;99.90
5248;DHT22;2644;52.420;13.580;2022-09-14T01:09:30;13.00;99.90
5248;DHT22;2644;52.420;13.580;2022-09-14T01:10:48;13.00;99.90
5248;DHT22;2644;52.420;13.580;2022-09-14T01:12:07;12.90;99.90
5248;DHT22;2644;52.420;13.580;2022-09-14T01:13:24;13.00;99.90
5248;DHT22;2644;52.420;13.580;2022-09-14T01:14:35;12.90;99.90
5248;DHT22;2644;52.420;13.580;2022-09-14T01:15:49;12.90;99.90
5248;DHT22;2644;52.420;13.580;2022-09-14T01:17:00;12.90;99.90
5248;DHT22;2644;52.420;13.580;2022-09-14T01:18:11;12.90;99.90
5248;DHT22;2644;52.420;13.580;2022-09-14T01:19:23;12.90;99.90
5248;DHT22;2644;52.420;13.580;2022-09-14T01:20:29;12.80;99.90
5248;DHT22;2644;52.420;13.580;2022-09-14T01:21:36;12.80;99.90
5248;DHT22;2644;52.420;13.580;2022-09-14T01:22:42;12.80;99.90
5248;DHT22;2644;52.420;13.580;2022-09-14T01:23:52;12.90;99.90
5248;DHT22;2644;52.420;13.580;2022-09-14T01:25:07;12.80;99.90
5248;DHT22;2644;52.420;13.580;2022-09-14T01:26:42;12.80;99.90
5248;DHT22;2644;52.420;13.580;2022-09-14T01:27:52;12.80;99.90
5248;DHT22;2644;52.420;13.580;2022-09-14T01:28:57;12.80;99.90
5248;DHT22;2644;52.420;13.580;2022-09-14T01:30:06;12.80;99.90
5248;DHT22;2644;52.420;13.580;2022-09-14T01:31:14;12.80;99.90
5248;DHT22;2644;52.420;13.580;2022-09-14T01:32:23;12.70;99.90
5248;DHT22;2644;52.420;13.580;2022-09-14T01:33:29;12.70;99.90
5248;DHT22;2644;52.420;13.580;2022-09-14T01:34:37;12.70;99.90
5248;DHT22;2644;52.420;13.580;2022-09-14T01:35:43;12.70;99.90
5248;DHT22;2644;52.420;13.580;2022-09-14T01:36:50;12.70;99.90
5248;DHT22;2644;52.420;13.580;2022-09-14T01:37:57;12.60;99.90
5248;DHT22;2644;52.420;13.580;2022-09-14T01:39:02;12.70;99.90
5248;DHT22;2644;52.420;13.580;2022-09-14T01:40:09;12.60;99.90
5248;DHT22;2644;52.420;13.580;2022-09-14T01:41:17;12.60;99.90
5248;DHT22;2644;52.420;13.580;2022-09-14T01:42:23;12.60;99.90
5248;DHT22;2644;52.420;13.580;2022-09-14T01:43:32;12.60;99.90
5248;DHT22;2644;52.420;13.580;2022-09-14T01:44:41;12.60;99.90
5248;DHT22;2644;52.420;13.580;2022-09-14T01:45:48;12.60;99.90
5248;DHT22;2644;52.420;13.580;2022-09-14T01:46:53;12.60;99.90
5248;DHT22;2644;52.420;13.580;2022-09-14T01:48:00;12.60;99.90
5248;DHT22;2644;52.420;13.580;2022-09-14T01:49:06;12.60;99.90
5248;DHT22;2644;52.420;13.580;2022-09-14T01:50:15;12.50;99.90
5248;DHT22;2644;52.420;13.580;2022-09-14T01:51:28;12.50;99.90
5248;DHT22;2644;52.420;13.580;2022-09-14T01:52:36;12.50;99.90
5248;DHT22;2644;52.420;13.580;2022-09-14T01:53:42;12.50;99.90
5248;DHT22;2644;52.420;13.580;2022-09-14T01:54:48;12.50;99.90
5248;DHT22;2644;52.420;13.580;2022-09-14T01:55:55;12.50;99.90
5248;DHT22;2644;52.420;13.580;2022-09-14T01:57:03;12.50;99.90
5248;DHT22;2644;52.420;13.580;2022-09-14T01:58:10;12.50;99.90
5248;DHT22;2644;52.420;13.580;2022-09-14T01:59:18;12.50;99.90
5248;DHT22;2644;52.420;13.580;2022-09-14T02:00:21;12.40;99.90
5248;DHT22;2644;52.420;13.580;2022-09-14T02:01:28;12.40;99.90
5248;DHT22;2644;52.420;13.580;2022-09-14T02:02:36;12.40;99.90
5248;DHT22;2644;52.420;13.580;2022-09-14T02:03:44;12.50;99.90
5248;DHT22;2644;52.420;13.580;2022-09-14T02:04:51;12.50;99.90
5248;DHT22;2644;52.420;13.580;2022-09-14T02:05:58;12.50;99.90
5248;DHT22;2644;52.420;13.580;2022-09-14T02:07:01;12.50;99.90
5248;DHT22;2644;52.420;13.580;2022-09-14T02:08:04;12.50;99.90
5248;DHT22;2644;52.420;13.580;2022-09-14T02:09:10;12.50;99.90
5248;DHT22;2644;52.420;13.580;2022-09-14T02:10:15;12.50;99.90
5248;DHT22;2644;52.420;13.580;2022-09-14T02:11:18;12.40;99.90
5248;DHT22;2644;52.420;13.580;2022-09-14T02:12:21;12.40;99.90
5248;DHT22;2644;52.420;13.580;2022-09-14T02:13:24;12.40;99.90
5248;DHT22;2644;52.420;13.580;2022-09-14T02:14:29;12.40;99.90
5248;DHT22;2644;52.420;13.580;2022-09-14T02:15:31;12.40;99.90
5248;DHT22;2644;52.420;13.580;2022-09-14T02:16:36;12.40;99.90
5248;DHT22;2644;52.420;13.580;2022-09-14T02:17:39;12.40;99.90
5248;DHT22;2644;52.420;13.580;2022-09-14T02:18:42;12.40;99.90
5248;DHT22;2644;52.420;13.580;2022-09-14T02:19:47;12.40;99.90
5248;DHT22;2644;52.420;13.580;2022-09-14T02:20:58;12.30;99.90
5248;DHT22;2644;52.420;13.580;2022-09-14T02:22:01;12.30;99.90
5248;DHT22;2644;52.420;13.580;2022-09-14T02:23:04;12.30;99.90
5248;DHT22;2644;52.420;13.580;2022-09-14T02:24:06;12.30;99.90
5248;DHT22;2644;52.420;13.580;2022-09-14T02:25:10;12.30;99.90
5248;DHT22;2644;52.420;13.580;2022-09-14T02:26:12;12.30;99.90
5248;DHT22;2644;52.420;13.580;2022-09-14T02:27:15;12.30;99.90
5248;DHT22;2644;52.420;13.580;2022-09-14T02:28:17;12.30;99.90
5248;DHT22;2644;52.420;13.580;2022-09-14T02:29:20;12.30;99.90
5248;DHT22;2644;52.420;13.580;2022-09-14T02:30:24;12.30;99.90
5248;DHT22;2644;52.420;13.580;2022-09-14T02:31:35;12.30;99.90
5248;DHT22;2644;52.420;13.580;2022-09-14T02:32:50;12.20;99.90
5248;DHT22;2644;52.420;13.580;2022-09-14T02:34:02;12.20;99.90
5248;DHT22;2644;52.420;13.580;2022-09-14T02:35:12;12.20;99.90
5248;DHT22;2644;52.420;13.580;2022-09-14T02:36:22;12.20;99.90
5248;DHT22;2644;52.420;13.580;2022-09-14T02:37:42;12.20;99.90
5248;DHT22;2644;52.420;13.580;2022-09-14T02:38:50;12.20;99.90
5248;DHT22;2644;52.420;13.580;2022-09-14T02:40:00;12.10;99.90
5248;DHT22;2644;52.420;13.580;2022-09-14T02:41:11;12.20;99.90
5248;DHT22;2644;52.420;13.580;2022-09-14T02:42:24;12.10;99.90
5248;DHT22;2644;52.420;13.580;2022-09-14T02:43:34;12.10;99.90
5248;DHT22;2644;52.420;13.580;2022-09-14T02:44:43;12.10;99.90
5248;DHT22;2644;52.420;13.580;2022-09-14T02:45:55;12.10;99.90
5248;DHT22;2644;52.420;13.580;2022-09-14T02:47:03;12.10;99.90
5248;DHT22;2644;52.420;13.580;2022-09-14T02:48:20;12.20;99.90
5248;DHT22;2644;52.420;13.580;2022-09-14T02:49:28;12.10;99.90
5248;DHT22;2644;52.420;13.580;2022-09-14T02:50:39;12.10;99.90
5248;DHT22;2644;52.420;13.580;2022-09-14T02:51:50;12.10;99.90
5248;DHT22;2644;52.420;13.580;2022-09-14T02:53:00;12.10;99.90
5248;DHT22;2644;52.420;13.580;2022-09-14T02:54:07;12.10;99.90
5248;DHT22;2644;52.420;13.580;2022-09-14T02:55:15;12.10;99.90
5248;DHT22;2644;52.420;13.580;2022-09-14T02:56:19;12.10;99.90
5248;DHT22;2644;52.420;13.580;2022-09-14T02:57:21;12.10;99.90
5248;DHT22;2644;52.420;13.580;2022-09-14T02:58:33;12.10;99.90
5248;DHT22;2644;52.420;13.580;2022-09-14T02:59:35;12.10;99.90
5248;DHT22;2644;52.420;13.580;2022-09-14T03:00:40;12.10;99.90
5248;DHT22;2644;52.420;13.580;2022-09-14T03:01:44;12.10;99.90
5248;DHT22;2644;52.420;13.580;2022-09-14T03:02:47;12.10;99.90
5248;DHT22;2644;52.420;13.580;2022-09-14T03:03:49;12.10;99.90
5248;DHT22;2644;52.420;13.580;2022-09-14T03:04:52;12.00;99.90
5248;DHT22;2644;52.420;13.580;2022-09-14T03:05:55;12.00;99.90
5248;DHT22;2644;52.420;13.580;2022-09-14T03:06:58;12.00;99.90
5248;DHT22;2644;52.420;13.580;2022-09-14T03:08:01;12.00;99.90
5248;DHT22;2644;52.420;13.580;2022-09-14T03:09:04;12.00;99.90
5248;DHT22;2644;52.420;13.580;2022-09-14T03:10:07;12.00;99.90
5248;DHT22;2644;52.420;13.580;2022-09-14T03:11:10;12.00;99.90
5248;DHT22;2644;52.420;13.580;2022-09-14T03:12:12;12.00;99.90
5248;DHT22;2644;52.420;13.580;2022-09-14T03:13:16;12.00;99.90
5248;DHT22;2644;52.420;13.580;2022-09-14T03:14:18;12.00;99.90
5248;DHT22;2644;52.420;13.580;2022-09-14T03:15:21;12.00;99.90
5248;DHT22;2644;52.420;13.580;2022-09-14T03:16:23;12.00;99.90
5248;DHT22;2644;52.420;13.580;2022-09-14T03:17:28;12.00;99.90
5248;DHT22;2644;52.420;13.580;2022-09-14T03:18:30;12.00;99.90
5248;DHT22;2644;52.420;13.580;2022-09-14T03:19:40;12.10;99.90
5248;DHT22;2644;52.420;13.580;2022-09-14T03:20:43;12.00;99.90
5248;DHT22;2644;52.420;13.580;2022-09-14T03:21:46;12.00;99.90
5248;DHT22;2644;52.420;13.580;2022-09-14T03:22:49;12.10;99.90
5248;DHT22;2644;52.420;13.580;2022-09-14T03:23:52;12.00;99.90
5248;DHT22;2644;52.420;13.580;2022-09-14T03:24:56;12.10;99.90
5248;DHT22;2644;52.420;13.580;2022-09-14T03:25:59;12.00;99.90
5248;DHT22;2644;52.420;13.580;2022-09-14T03:27:01;12.00;99.90
5248;DHT22;2644;52.420;13.580;2022-09-14T03:28:05;12.00;99.90
5248;DHT22;2644;52.420;13.580;2022-09-14T03:29:07;12.00;99.90
5248;DHT22;2644;52.420;13.580;2022-09-14T03:30:11;12.00;99.90
5248;DHT22;2644;52.420;13.580;2022-09-14T03:31:13;12.00;99.90
5248;DHT22;2644;52.420;13.580;2022-09-14T03:32:16;12.00;99.90
5248;DHT22;2644;52.420;13.580;2022-09-14T03:33:20;12.00;99.90
5248;DHT22;2644;52.420;13.580;2022-09-14T03:34:23;12.00;99.90
5248;DHT22;2644;52.420;13.580;2022-09-14T03:35:26;12.00;99.90
5248;DHT22;2644;52.420;13.580;2022-09-14T03:36:30;12.10;99.90
5248;DHT22;2644;52.420;13.580;2022-09-14T03:37:36;12.00;99.90
5248;DHT22;2644;52.420;13.580;2022-09-14T03:38:42;12.10;99.90
5248;DHT22;2644;52.420;13.580;2022-09-14T03:39:45;12.10;99.90
5248;DHT22;2644;52.420;13.580;2022-09-14T03:40:47;12.00;99.90
5248;DHT22;2644;52.420;13.580;2022-09-14T03:41:50;12.00;99.90
5248;DHT22;2644;52.420;13.580;2022-09-14T03:42:52;12.00;99.90
5248;DHT22;2644;52.420;13.580;2022-09-14T03:43:55;12.10;99.90
5248;DHT22;2644;52.420;13.580;2022-09-14T03:44:57;12.00;99.90
5248;DHT22;2644;52.420;13.580;2022-09-14T03:46:04;12.00;99.90
5248;DHT22;2644;52.420;13.580;2022-09-14T03:47:06;12.00;99.90
5248;DHT22;2644;52.420;13.580;2022-09-14T03:48:10;12.00;99.90
5248;DHT22;2644;52.420;13.580;2022-09-14T03:49:13;12.00;99.90
5248;DHT22;2644;52.420;13.580;2022-09-14T03:50:18;12.00;99.90
5248;DHT22;2644;52.420;13.580;2022-09-14T03:51:20;12.00;99.90
5248;DHT22;2644;52.420;13.580;2022-09-14T03:52:23;12.00;99.90
5248;DHT22;2644;52.420;13.580;2022-09-14T03:53:25;12.00;99.90
5248;DHT22;2644;52.420;13.580;2022-09-14T03:54:28;11.90;99.90
5248;DHT22;2644;52.420;13.580;2022-09-14T03:55:30;11.90;99.90
5248;DHT22;2644;52.420;13.580;2022-09-14T03:56:33;12.00;99.90
5248;DHT22;2644;52.420;13.580;2022-09-14T03:57:36;12.00;99.90
5248;DHT22;2644;52.420;13.580;2022-09-14T03:58:40;11.90;99.90
5248;DHT22;2644;52.420;13.580;2022-09-14T03:59:42;11.90;99.90
5248;DHT22;2644;52.420;13.580;2022-09-14T04:00:45;11.90;99.90
5248;DHT22;2644;52.420;13.580;2022-09-14T04:01:47;11.90;99.90
5248;DHT22;2644;52.420;13.580;2022-09-14T04:02:50;11.90;99.90
5248;DHT22;2644;52.420;13.580;2022-09-14T04:03:52;11.90;99.90
5248;DHT22;2644;52.420;13.580;2022-09-14T04:04:57;11.90;99.90
5248;DHT22;2644;52.420;13.580;2022-09-14T04:05:59;11.90;99.90
5248;DHT22;2644;52.420;13.580;2022-09-14T04:07:06;11.90;99.90
5248;DHT22;2644;52.420;13.580;2022-09-14T04:08:08;11.90;99.90
5248;DHT22;2644;52.420;13.580;2022-09-14T04:09:11;11.90;99.90
5248;DHT22;2644;52.420;13.580;2022-09-14T04:10:13;11.90;99.90
5248;DHT22;2644;52.420;13.580;2022-09-14T04:11:18;11.90;99.90
5248;DHT22;2644;52.420;13.580;2022-09-14T04:12:20;11.90;99.90
5248;DHT22;2644;52.420;13.580;2022-09-14T04:13:24;11.90;99.90
5248;DHT22;2644;52.420;13.580;2022-09-14T04:14:26;11.80;99.90
5248;DHT22;2644;52.420;13.580;2022-09-14T04:15:29;11.80;99.90
5248;DHT22;2644;52.420;13.580;2022-09-14T04:16:31;11.80;99.90
5248;DHT22;2644;52.420;13.580;2022-09-14T04:17:35;11.90;99.90
5248;DHT22;2644;52.420;13.580;2022-09-14T04:18:37;11.80;99.90
5248;DHT22;2644;52.420;13.580;2022-09-14T04:19:40;11.80;99.90
5248;DHT22;2644;52.420;13.580;2022-09-14T04:20:44;11.80;99.90
5248;DHT22;2644;52.420;13.580;2022-09-14T04:21:47;11.80;99.90
5248;DHT22;2644;52.420;13.580;2022-09-14T04:22:49;11.80;99.90
5248;DHT22;2644;52.420;13.580;2022-09-14T04:23:53;11.80;99.90
5248;DHT22;2644;52.420;13.580;2022-09-14T04:25:15;11.80;99.90
5248;DHT22;2644;52.420;13.580;2022-09-14T04:26:20;11.80;99.90
5248;DHT22;2644;52.420;13.580;2022-09-14T04:27:23;11.80;99.90
5248;DHT22;2644;52.420;13.580;2022-09-14T04:28:26;11.80;99.90
5248;DHT22;2644;52.420;13.580;2022-09-14T04:29:29;11.80;99.90
5248;DHT22;2644;52.420;13.580;2022-09-14T04:30:34;11.80;99.90
5248;DHT22;2644;52.420;13.580;2022-09-14T04:31:38;11.80;99.90
5248;DHT22;2644;52.420;13.580;2022-09-14T04:32:41;11.80;99.90
5248;DHT22;2644;52.420;13.580;2022-09-14T04:33:44;11.80;99.90
5248;DHT22;2644;52.420;13.580;2022-09-14T04:34:50;11.80;99.90
5248;DHT22;2644;52.420;13.580;2022-09-14T04:35:58;11.80;99.90
5248;DHT22;2644;52.420;13.580;2022-09-14T04:37:02;11.80;99.90
5248;DHT22;2644;52.420;13.580;2022-09-14T04:38:05;11.80;99.90
5248;DHT22;2644;52.420;13.580;2022-09-14T04:39:09;11.80;99.90
5248;DHT22;2644;52.420;13.580;2022-09-14T04:40:14;11.90;99.90
5248;DHT22;2644;52.420;13.580;2022-09-14T04:41:18;11.90;99.90
5248;DHT22;2644;52.420;13.580;2022-09-14T04:42:27;11.90;99.90
5248;DHT22;2644;52.420;13.580;2022-09-14T04:43:29;11.90;99.90
5248;DHT22;2644;52.420;13.580;2022-09-14T04:44:33;11.90;99.90
5248;DHT22;2644;52.420;13.580;2022-09-14T04:45:34;11.90;99.90
5248;DHT22;2644;52.420;13.580;2022-09-14T04:46:38;11.90;99.90
5248;DHT22;2644;52.420;13.580;2022-09-14T04:47:47;11.90;99.90
5248;DHT22;2644;52.420;13.580;2022-09-14T04:48:52;11.90;99.90
5248;DHT22;2644;52.420;13.580;2022-09-14T04:49:54;12.00;99.90
5248;DHT22;2644;52.420;13.580;2022-09-14T04:51:01;12.00;99.90
5248;DHT22;2644;52.420;13.580;2022-09-14T04:52:04;12.00;99.90
5248;DHT22;2644;52.420;13.580;2022-09-14T04:53:07;11.90;99.90
5248;DHT22;2644;52.420;13.580;2022-09-14T04:54:12;12.00;99.90
5248;DHT22;2644;52.420;13.580;2022-09-14T04:55:15;11.90;99.90
5248;DHT22;2644;52.420;13.580;2022-09-14T04:56:19;12.00;99.90
5248;DHT22;2644;52.420;13.580;2022-09-14T04:57:23;11.90;99.90
5248;DHT22;2644;52.420;13.580;2022-09-14T04:58:27;12.00;99.90
5248;DHT22;2644;52.420;13.580;2022-09-14T04:59:29;12.00;99.90
5248;DHT22;2644;52.420;13.580;2022-09-14T05:00:33;12.00;99.90
5248;DHT22;2644;52.420;13.580;2022-09-14T05:01:37;12.00;99.90
5248;DHT22;2644;52.420;13.580;2022-09-14T05:02:41;12.00;99.90
5248;DHT22;2644;52.420;13.580;2022-09-14T05:03:43;12.00;99.90
5248;DHT22;2644;52.420;13.580;2022-09-14T05:04:46;12.00;99.90
5248;DHT22;2644;52.420;13.580;2022-09-14T05:05:49;12.00;99.90
5248;DHT22;2644;52.420;13.580;2022-09-14T05:06:53;12.00;99.90
5248;DHT22;2644;52.420;13.580;2022-09-14T05:07:57;12.00;99.90
5248;DHT22;2644;52.420;13.580;2022-09-14T05:09:00;12.10;99.90
5248;DHT22;2644;52.420;13.580;2022-09-14T05:10:04;12.10;99.90
5248;DHT22;2644;52.420;13.580;2022-09-14T05:11:08;12.10;99.90
5248;DHT22;2644;52.420;13.580;2022-09-14T05:12:13;12.20;99.90
5248;DHT22;2644;52.420;13.580;2022-09-14T05:13:15;12.20;99.90
5248;DHT22;2644;52.420;13.580;2022-09-14T05:14:19;12.30;99.90
5248;DHT22;2644;52.420;13.580;2022-09-14T05:15:22;12.30;99.90
5248;DHT22;2644;52.420;13.580;2022-09-14T05:16:27;12.40;99.90
5248;DHT22;2644;52.420;13.580;2022-09-14T05:17:32;12.40;99.90
5248;DHT22;2644;52.420;13.580;2022-09-14T05:18:35;12.30;99.90
5248;DHT22;2644;52.420;13.580;2022-09-14T05:19:38;12.40;99.90
5248;DHT22;2644;52.420;13.580;2022-09-14T05:20:41;12.40;99.90
5248;DHT22;2644;52.420;13.580;2022-09-14T05:21:44;12.40;99.90
5248;DHT22;2644;52.420;13.580;2022-09-14T05:22:49;12.50;99.90
5248;DHT22;2644;52.420;13.580;2022-09-14T05:23:55;12.50;99.90
5248;DHT22;2644;52.420;13.580;2022-09-14T05:24:59;12.50;99.90
5248;DHT22;2644;52.420;13.580;2022-09-14T05:26:01;12.50;99.90
5248;DHT22;2644;52.420;13.580;2022-09-14T05:27:05;12.50;99.90
5248;DHT22;2644;52.420;13.580;2022-09-14T05:28:07;12.50;99.90
5248;DHT22;2644;52.420;13.580;2022-09-14T05:29:11;12.40;99.90
5248;DHT22;2644;52.420;13.580;2022-09-14T05:30:15;12.40;99.90
5248;DHT22;2644;52.420;13.580;2022-09-14T05:31:17;12.40;99.90
5248;DHT22;2644;52.420;13.580;2022-09-14T05:32:20;12.40;99.90
5248;DHT22;2644;52.420;13.580;2022-09-14T05:33:22;12.40;99.90
5248;DHT22;2644;52.420;13.580;2022-09-14T05:34:25;12.40;99.90
5248;DHT22;2644;52.420;13.580;2022-09-14T05:35:27;12.50;99.90
5248;DHT22;2644;52.420;13.580;2022-09-14T05:36:30;12.50;99.90
5248;DHT22;2644;52.420;13.580;2022-09-14T05:37:32;12.50;99.90
5248;DHT22;2644;52.420;13.580;2022-09-14T05:38:38;12.50;99.90
5248;DHT22;2644;52.420;13.580;2022-09-14T05:39:40;12.50;99.90
5248;DHT22;2644;52.420;13.580;2022-09-14T05:40:43;12.60;99.90
5248;DHT22;2644;52.420;13.580;2022-09-14T05:41:47;12.60;99.90
5248;DHT22;2644;52.420;13.580;2022-09-14T05:42:50;12.60;99.90
5248;DHT22;2644;52.420;13.580;2022-09-14T05:43:52;12.60;99.90
5248;DHT22;2644;52.420;13.580;2022-09-14T05:44:55;12.60;99.90
5248;DHT22;2644;52.420;13.580;2022-09-14T05:46:00;12.60;99.90
5248;DHT22;2644;52.420;13.580;2022-09-14T05:47:04;12.70;99.90
5248;DHT22;2644;52.420;13.580;2022-09-14T05:48:07;12.70;99.90
5248;DHT22;2644;52.420;13.580;2022-09-14T05:49:09;12.70;99.90
5248;DHT22;2644;52.420;13.580;2022-09-14T05:50:12;12.70;99.90
5248;DHT22;2644;52.420;13.580;2022-09-14T05:51:17;12.80;99.90
5248;DHT22;2644;52.420;13.580;2022-09-14T05:52:21;12.70;99.90
5248;DHT22;2644;52.420;13.580;2022-09-14T05:53:23;12.80;99.90
5248;DHT22;2644;52.420;13.580;2022-09-14T05:54:27;12.80;99.90
5248;DHT22;2644;52.420;13.580;2022-09-14T05:55:30;12.80;99.90
5248;DHT22;2644;52.420;13.580;2022-09-14T05:56:32;12.80;99.90
5248;DHT22;2644;52.420;13.580;2022-09-14T05:57:35;12.80;99.90
5248;DHT22;2644;52.420;13.580;2022-09-14T05:58:39;12.80;99.90
5248;DHT22;2644;52.420;13.580;2022-09-14T05:59:42;12.80;99.90
5248;DHT22;2644;52.420;13.580;2022-09-14T06:00:45;12.90;99.90
5248;DHT22;2644;52.420;13.580;2022-09-14T06:01:47;12.90;99.90
5248;DHT22;2644;52.420;13.580;2022-09-14T06:02:52;12.90;99.90
5248;DHT22;2644;52.420;13.580;2022-09-14T06:03:57;12.90;99.90
5248;DHT22;2644;52.420;13.580;2022-09-14T06:05:02;13.00;99.90
5248;DHT22;2644;52.420;13.580;2022-09-14T06:06:07;12.90;99.90
5248;DHT22;2644;52.420;13.580;2022-09-14T06:07:18;13.00;99.90
5248;DHT22;2644;52.420;13.580;2022-09-14T06:08:29;13.00;99.90
5248;DHT22;2644;52.420;13.580;2022-09-14T06:09:33;13.00;99.90
5248;DHT22;2644;52.420;13.580;2022-09-14T06:10:36;13.00;99.90
5248;DHT22;2644;52.420;13.580;2022-09-14T06:11:40;13.10;99.90
5248;DHT22;2644;52.420;13.580;2022-09-14T06:12:43;13.20;99.90
5248;DHT22;2644;52.420;13.580;2022-09-14T06:13:46;13.20;99.90
5248;DHT22;2644;52.420;13.580;2022-09-14T06:14:49;13.20;99.90
5248;DHT22;2644;52.420;13.580;2022-09-14T06:15:52;13.30;99.90
5248;DHT22;2644;52.420;13.580;2022-09-14T06:16:54;13.30;99.90
5248;DHT22;2644;52.420;13.580;2022-09-14T06:17:57;13.40;99.90
5248;DHT22;2644;52.420;13.580;2022-09-14T06:18:59;13.50;99.90
5248;DHT22;2644;52.420;13.580;2022-09-14T06:20:03;13.50;99.90
5248;DHT22;2644;52.420;13.580;2022-09-14T06:21:07;13.60;99.90
5248;DHT22;2644;52.420;13.580;2022-09-14T06:22:10;13.70;99.90
5248;DHT22;2644;52.420;13.580;2022-09-14T06:23:13;13.70;99.90
5248;DHT22;2644;52.420;13.580;2022-09-14T06:24:15;13.70;99.90
5248;DHT22;2644;52.420;13.580;2022-09-14T06:25:20;13.80;99.90
5248;DHT22;2644;52.420;13.580;2022-09-14T06:26:22;13.80;99.90
5248;DHT22;2644;52.420;13.580;2022-09-14T06:27:25;13.70;99.90
5248;DHT22;2644;52.420;13.580;2022-09-14T06:28:28;13.80;99.90
5248;DHT22;2644;52.420;13.580;2022-09-14T06:29:32;13.80;99.90
5248;DHT22;2644;52.420;13.580;2022-09-14T06:30:34;13.90;99.90
5248;DHT22;2644;52.420;13.580;2022-09-14T06:31:37;13.90;99.90
5248;DHT22;2644;52.420;13.580;2022-09-14T06:32:39;14.00;99.90
5248;DHT22;2644;52.420;13.580;2022-09-14T06:33:43;14.00;99.90
5248;DHT22;2644;52.420;13.580;2022-09-14T06:34:45;14.10;99.90
5248;DHT22;2644;52.420;13.580;2022-09-14T06:35:54;14.20;99.90
5248;DHT22;2644;52.420;13.580;2022-09-14T06:36:56;14.20;99.90
5248;DHT22;2644;52.420;13.580;2022-09-14T06:38:00;14.20;99.90
5248;DHT22;2644;52.420;13.580;2022-09-14T06:39:02;14.30;99.90
5248;DHT22;2644;52.420;13.580;2022-09-14T06:40:06;14.30;99.90
5248;DHT22;2644;52.420;13.580;2022-09-14T06:41:11;14.40;99.90
5248;DHT22;2644;52.420;13.580;2022-09-14T06:42:14;14.50;99.90
5248;DHT22;2644;52.420;13.580;2022-09-14T06:43:18;14.50;99.90
5248;DHT22;2644;52.420;13.580;2022-09-14T06:44:20;14.60;99.90
5248;DHT22;2644;52.420;13.580;2022-09-14T06:45:23;14.60;99.90
5248;DHT22;2644;52.420;13.580;2022-09-14T06:46:27;14.70;99.90
5248;DHT22;2644;52.420;13.580;2022-09-14T06:47:31;14.70;99.90
5248;DHT22;2644;52.420;13.580;2022-09-14T06:48:35;14.70;99.90
5248;DHT22;2644;52.420;13.580;2022-09-14T06:49:38;14.80;99.90
5248;DHT22;2644;52.420;13.580;2022-09-14T06:50:41;14.80;99.90
5248;DHT22;2644;52.420;13.580;2022-09-14T06:51:44;14.90;99.90
5248;DHT22;2644;52.420;13.580;2022-09-14T06:52:48;15.10;99.90
5248;DHT22;2644;52.420;13.580;2022-09-14T06:53:51;15.20;99.90
5248;DHT22;2644;52.420;13.580;2022-09-14T06:54:54;15.40;99.90
5248;DHT22;2644;52.420;13.580;2022-09-14T06:55:57;15.50;99.90